Newport, ME

12:44 PM EDT on April 26, 2015 (GMT -0400)
Downtown Newport | | Change Station
CLOSE
Current Station
Personal Weather Station
Location: Newport, ME
Elevation: 227 ft
Nearby Weather Stations
Active Advisory: Flood Warning

Elev 227 ft 44.84 °N, 69.28 °W | Updated 4 seconds ago

Overcast
Overcast
47.8 °F
Feels Like 48 °F
N
0.0
Wind Variable Wind from ENE
Gusts 3.0 mph

Today
High -- | Low -- °F
--% Chance of Precip.
Yesterday
High -- | Low -- °F
Precip. -- in
5:34 AM 7:35 PM
First Quarter, 57% visible
Pressure 29.63 in
Visibility 10.0 miles
Clouds Mostly Cloudy 3000 ft
Overcast 3700 ft
Windchill 48 °F
Dew Point 42 °F
Humidity 82%
Rainfall 0.00 in
Snow Depth Not available.
UV 3 out of 12
Pollen 8.00 out of 12
Air Quality Not available.
Flu Activity Regional
METAR KBGR 261553Z 01003KT 10SM -RA BKN030 OVC037 08/02 A2963 RMK AO2 RAB41 SLP033 P0000 T00830017

More Conditions Fewer Conditions

Pressure 29.63 in
Visibility 10.0 miles
Clouds Mostly Cloudy 3000 ft
Overcast 3700 ft
Windchill 48 °F
Dew Point 42 °F
Humidity 82%
Rainfall 0.00 in
Snow Depth Not available.
UV 3 out of 12
Pollen 8.00 out of 12
Air Quality Not available.
Flu Activity Regional
METAR KBGR 261553Z 01003KT 10SM -RA BKN030 OVC037 08/02 A2963 RMK AO2 RAB41 SLP033 P0000 T00830017

More Conditions Fewer Conditions

The full scope of the disaster following a powerful 7.8-magnitude earthquake in Nepal may not come into view for days, but global charities are already sending emergency aid. Click to see how you can help.

10-Day Weather Forecast

Almanac

Astronomy

Apr. 26, 2015 Rise Set
Actual Time
Civil Twilight
Nautical Twilight
Astronomical Twilight
Moon
Length of Visible Light
Length of Day
Tomorrow will be .
, % of the Moon is Illuminated

Today's Extremes

State Highs State Lows

Community

WunderPhotos

Upload Photos

1,817,054 photos uploaded!

WunderBlogs® & News

Nearby

Air Quality

  Air Quality AQ Index Pollutant
Not available.

Snow Depth

Station Depth Elevation

Earthquake Activity

City Distance Mag. Time & Date
Minimum magnitude displayed is 2.5.

Coastal Water Temperatures

Place Temperature

Stations

Nearby Weather Stations

Station Location Temp. Windchill Dew Point Humidity Wind Precip. Elev Updated Type
                   
Flood Warning
Statement as of 7:50 AM EDT on April 26, 2015

The Flood Warning continues for
the Mattawamkeag River above Mattawamkeag
* until late Monday night... or until the warning is cancelled.
* At 7:30 am Sunday the stage was 14.3 feet
* minor flooding is occurring and minor flooding is forecast.
* Flood stage is 13.5 feet.
* Forecast... the river will continue to slowly fall to below flood
stage by tomorrow late evening.
* Impacts... at 13.5 feet, minor lowland flooding occurs. Bancroft Road
is currently flooded near Bancroft.



Lat... Lon 4557 6838 4560 6819 4572 6808 4566 6794
      4551 6810 4546 6835